Time,TemperatureF,DewpointF,PressureIn,WindDirection,WindDirectionDegrees,WindSpeedMPH,WindSpeedGustMPH,Humidity,HourlyPrecipIn,Conditions,Clouds,dailyrainin,SoftwareType,DateUTC
2013-08-11 00:01:00,62.0,52.0,30.02,NW,315,0.0,0.0,71,0.00,,,0.00,,2013-08-11 04:01:00,
2013-08-11 00:12:00,62.0,52.0,30.02,NNE,23,0.0,0.0,71,0.00,,,0.00,,2013-08-11 04:12:00,
2013-08-11 00:22:00,62.0,52.0,30.02,NNE,23,0.0,0.0,71,0.00,,,0.00,,2013-08-11 04:22:00,
2013-08-11 00:32:00,62.0,52.0,30.02,NNE,23,0.0,0.0,70,0.00,,,0.00,,2013-08-11 04:32:00,
2013-08-11 00:43:00,61.0,51.0,30.02,NNE,23,0.0,0.0,69,0.00,,,0.00,,2013-08-11 04:43:00,
2013-08-11 00:53:00,61.0,51.0,30.02,ENE,68,0.0,0.0,70,0.00,,,0.00,,2013-08-11 04:53:00,
2013-08-11 01:02:00,61.0,51.0,30.02,ENE,68,0.0,0.0,70,0.00,,,0.00,,2013-08-11 05:02:00,
2013-08-11 01:25:00,60.0,50.0,30.02,NE,45,0.0,0.0,70,0.00,,,0.00,,2013-08-11 05:25:00,
2013-08-11 01:37:00,60.0,50.0,30.03,NE,45,0.0,0.0,70,0.00,,,0.00,,2013-08-11 05:37:00,
2013-08-11 01:47:00,60.0,50.0,30.03,NE,45,0.0,0.0,70,0.00,,,0.00,,2013-08-11 05:47:00,
2013-08-11 01:54:00,60.0,51.0,30.03,NE,45,0.0,0.0,71,0.00,,,0.00,,2013-08-11 05:54:00,
2013-08-11 02:04:00,59.0,50.0,30.03,NE,45,0.0,0.0,72,0.00,,,0.00,,2013-08-11 06:04:00,
2013-08-11 02:26:00,59.0,50.0,30.03,NE,45,0.0,0.0,71,0.00,,,0.00,,2013-08-11 06:26:00,
2013-08-11 02:48:00,59.0,50.0,30.03,NE,45,0.0,0.0,71,0.00,,,0.00,,2013-08-11 06:48:00,
2013-08-11 02:55:00,59.0,50.0,30.03,NE,45,0.0,0.0,71,0.00,,,0.00,,2013-08-11 06:55:00,
2013-08-11 03:07:00,59.0,50.0,30.03,NE,45,0.0,0.0,72,0.00,,,0.00,,2013-08-11 07:07:00,
2013-08-11 03:16:00,58.0,49.0,30.03,NE,45,0.0,0.0,72,0.00,,,0.00,,2013-08-11 07:16:00,
2013-08-11 03:25:00,58.0,49.0,30.04,NE,45,0.0,0.0,72,0.00,,,0.00,,2013-08-11 07:25:00,
2013-08-11 03:36:00,58.0,49.0,30.03,NE,45,0.0,0.0,72,0.00,,,0.00,,2013-08-11 07:36:00,
2013-08-11 03:46:00,58.0,49.0,30.04,NE,45,0.0,0.0,72,0.00,,,0.00,,2013-08-11 07:46:00,
2013-08-11 03:54:00,58.0,49.0,30.04,NE,45,0.0,0.0,73,0.00,,,0.00,,2013-08-11 07:54:00,
2013-08-11 04:27:00,57.0,49.0,30.04,NE,45,0.0,0.0,74,0.00,,,0.00,,2013-08-11 08:27:00,
2013-08-11 04:36:00,57.0,49.0,30.04,NE,45,0.0,0.0,75,0.00,,,0.00,,2013-08-11 08:36:00,
2013-08-11 04:48:00,57.0,50.0,30.04,NE,45,0.0,0.0,76,0.00,,,0.00,,2013-08-11 08:48:00,
2013-08-11 04:57:00,57.0,50.0,30.04,NE,45,0.0,0.0,76,0.00,,,0.00,,2013-08-11 08:57:00,
2013-08-11 05:09:00,56.0,49.0,30.05,NE,45,0.0,0.0,76,0.00,,,0.00,,2013-08-11 09:09:00,
2013-08-11 05:17:00,56.0,49.0,30.05,NE,45,0.0,0.0,77,0.00,,,0.00,,2013-08-11 09:17:00,
2013-08-11 05:29:00,56.0,49.0,30.05,NE,45,0.0,0.0,78,0.00,,,0.00,,2013-08-11 09:29:00,
2013-08-11 05:35:00,56.0,49.0,30.05,NE,45,0.0,0.0,78,0.00,,,0.00,,2013-08-11 09:35:00,
2013-08-11 05:44:00,56.0,49.0,30.06,NE,45,0.0,0.0,78,0.00,,,0.00,,2013-08-11 09:44:00,
2013-08-11 05:58:00,55.0,49.0,30.06,NE,45,0.0,0.0,79,0.00,,,0.00,,2013-08-11 09:58:00,
2013-08-11 06:06:00,55.0,49.0,30.06,NE,45,0.0,0.0,80,0.00,,,0.00,,2013-08-11 10:06:00,
2013-08-11 06:15:00,55.0,49.0,30.07,NE,45,0.0,0.0,81,0.00,,,0.00,,2013-08-11 10:15:00,
2013-08-11 06:29:00,55.0,49.0,30.07,NE,45,0.0,0.0,81,0.00,,,0.00,,2013-08-11 10:29:00,
2013-08-11 06:36:00,55.0,49.0,30.07,NE,45,0.0,0.0,81,0.00,,,0.00,,2013-08-11 10:36:00,
2013-08-11 06:46:00,55.0,49.0,30.08,NE,45,0.0,0.0,81,0.00,,,0.00,,2013-08-11 10:46:00,
2013-08-11 06:55:00,55.0,49.0,30.08,NE,45,0.0,0.0,81,0.00,,,0.00,,2013-08-11 10:55:00,
2013-08-11 07:06:00,55.0,49.0,30.08,NE,45,0.0,0.0,81,0.00,,,0.00,,2013-08-11 11:06:00,
2013-08-11 07:16:00,55.0,49.0,30.08,NE,45,0.0,0.0,81,0.00,,,0.00,,2013-08-11 11:16:00,
2013-08-11 07:24:00,55.0,49.0,30.08,NE,45,0.0,0.0,81,0.00,,,0.00,,2013-08-11 11:24:00,
2013-08-11 08:01:00,58.0,53.0,30.08,NE,45,0.0,0.0,82,0.00,,,0.00,,2013-08-11 12:01:00,
2013-08-11 08:16:00,59.0,53.0,30.08,NE,45,0.0,0.0,80,0.00,,,0.00,,2013-08-11 12:16:00,
2013-08-11 08:45:00,62.0,55.0,30.09,NE,45,0.0,0.0,77,0.00,,,0.00,,2013-08-11 12:45:00,
2013-08-11 08:54:00,63.0,56.0,30.09,NE,45,0.0,0.0,77,0.00,,,0.00,,2013-08-11 12:54:00,
2013-08-11 09:06:00,64.0,56.0,30.08,NE,45,0.0,0.0,76,0.00,,,0.00,,2013-08-11 13:06:00,
2013-08-11 09:16:00,64.0,56.0,30.08,NE,45,0.0,0.0,75,0.00,,,0.00,,2013-08-11 13:16:00,
2013-08-11 09:26:00,65.0,57.0,30.08,NE,45,0.0,0.0,75,0.00,,,0.00,,2013-08-11 13:26:00,
2013-08-11 09:39:00,66.0,57.0,30.09,NE,45,0.0,0.0,74,0.00,,,0.00,,2013-08-11 13:39:00,
2013-08-11 09:45:00,67.0,58.0,30.09,NE,45,0.0,0.0,74,0.00,,,0.00,,2013-08-11 13:45:00,
2013-08-11 09:56:00,68.0,59.0,30.08,NE,45,0.0,0.0,73,0.00,,,0.00,,2013-08-11 13:56:00,
2013-08-11 10:18:00,69.0,59.0,30.08,NE,45,0.0,0.0,70,0.00,,,0.00,,2013-08-11 14:18:00,
2013-08-11 10:24:00,70.0,59.0,30.09,NE,45,0.0,0.0,68,0.00,,,0.00,,2013-08-11 14:24:00,
2013-08-11 10:48:00,71.0,59.0,30.09,NE,45,0.0,0.0,66,0.00,,,0.00,,2013-08-11 14:48:00,
2013-08-11 10:56:00,71.0,58.0,30.08,North,0,0.0,0.0,64,0.00,,,0.00,,2013-08-11 14:56:00,
2013-08-11 11:08:00,72.0,59.0,30.08,WNW,293,0.0,0.0,64,0.00,,,0.00,,2013-08-11 15:08:00,
2013-08-11 11:15:00,73.0,60.0,30.08,WSW,248,0.0,0.0,63,0.00,,,0.00,,2013-08-11 15:15:00,
2013-08-11 11:24:00,73.0,59.0,30.08,NE,45,0.0,0.0,61,0.00,,,0.00,,2013-08-11 15:24:00,
2013-08-11 11:39:00,74.0,60.0,30.08,NE,45,0.0,0.0,61,0.00,,,0.00,,2013-08-11 15:39:00,
2013-08-11 12:15:00,76.0,59.0,30.08,NE,45,0.0,0.0,56,0.00,,,0.00,,2013-08-11 16:15:00,
2013-08-11 12:29:00,77.0,61.0,30.07,ENE,68,0.0,0.0,57,0.00,,,0.00,,2013-08-11 16:29:00,
2013-08-11 16:28:00,81.0,57.0,30.03,WNW,293,0.0,0.0,44,0.00,,,0.00,,2013-08-11 20:28:00,
2013-08-11 16:38:00,80.0,57.0,30.03,NE,45,0.0,0.0,46,0.00,,,0.00,,2013-08-11 20:38:00,
2013-08-11 16:48:00,79.0,58.0,30.02,NNE,23,0.0,0.0,48,0.00,,,0.00,,2013-08-11 20:48:00,
2013-08-11 17:08:00,77.0,57.0,30.02,WNW,293,0.0,0.0,50,0.00,,,0.00,,2013-08-11 21:08:00,
2013-08-11 17:14:00,77.0,57.0,30.02,WSW,248,0.0,0.0,51,0.00,,,0.00,,2013-08-11 21:14:00,
2013-08-11 17:27:00,77.0,57.0,30.02,WNW,293,0.0,0.0,51,0.00,,,0.00,,2013-08-11 21:27:00,
2013-08-11 17:47:00,76.0,58.0,30.02,WSW,248,0.0,0.0,53,0.00,,,0.00,,2013-08-11 21:47:00,
2013-08-11 17:55:00,75.0,57.0,30.02,North,0,0.0,0.0,54,0.00,,,0.00,,2013-08-11 21:55:00,
2013-08-11 18:05:00,74.0,57.0,30.02,WSW,248,0.0,0.0,55,0.00,,,0.00,,2013-08-11 22:05:00,
2013-08-11 18:17:00,74.0,57.0,30.01,WSW,248,0.0,2.0,56,0.00,,,0.00,,2013-08-11 22:17:00,
2013-08-11 18:36:00,74.0,58.0,30.01,SE,135,6.0,6.0,57,0.00,,,0.00,,2013-08-11 22:36:00,
2013-08-11 18:47:00,73.0,57.0,30.02,SE,135,0.0,0.0,57,0.00,,,0.00,,2013-08-11 22:47:00,
2013-08-11 19:06:00,72.0,57.0,30.01,ESE,113,0.0,0.0,60,0.00,,,0.00,,2013-08-11 23:06:00,
2013-08-11 19:18:00,71.0,56.0,30.02,WSW,248,0.0,0.0,60,0.00,,,0.00,,2013-08-11 23:18:00,
2013-08-11 19:30:00,71.0,57.0,30.01,SSW,203,0.0,0.0,61,0.00,,,0.00,,2013-08-11 23:30:00,
2013-08-11 19:35:00,70.0,56.0,30.02,SSW,203,0.0,0.0,62,0.00,,,0.00,,2013-08-11 23:35:00,
2013-08-11 19:48:00,70.0,57.0,30.02,South,180,0.0,0.0,63,0.00,,,0.00,,2013-08-11 23:48:00,
2013-08-11 19:57:00,69.0,56.0,30.02,South,180,0.0,0.0,64,0.00,,,0.00,,2013-08-11 23:57:00,
2013-08-11 20:18:00,69.0,56.0,30.02,South,180,0.0,0.0,64,0.00,,,0.00,,2013-08-12 00:18:00,
2013-08-11 20:37:00,67.0,56.0,30.02,South,180,0.0,0.0,67,0.00,,,0.00,,2013-08-12 00:37:00,
2013-08-11 20:50:00,67.0,56.0,30.02,SSE,158,0.0,0.0,67,0.00,,,0.00,,2013-08-12 00:50:00,
2013-08-11 20:55:00,66.0,55.0,30.03,SSE,158,0.0,2.0,67,0.00,,,0.00,,2013-08-12 00:55:00,
2013-08-11 21:08:00,66.0,55.0,30.03,SSE,158,0.0,0.0,68,0.00,,,0.00,,2013-08-12 01:08:00,
2013-08-11 21:14:00,66.0,56.0,30.04,SSE,158,0.0,0.0,69,0.00,,,0.00,,2013-08-12 01:14:00,
2013-08-11 21:26:00,65.0,55.0,30.04,SE,135,0.0,0.0,69,0.00,,,0.00,,2013-08-12 01:26:00,
2013-08-11 21:38:00,65.0,55.0,30.04,SE,135,0.0,0.0,69,0.00,,,0.00,,2013-08-12 01:38:00,
2013-08-11 21:55:00,65.0,55.0,30.05,SE,135,0.0,0.0,70,0.00,,,0.00,,2013-08-12 01:55:00,
2013-08-11 22:08:00,65.0,55.0,30.05,SE,135,0.0,0.0,70,0.00,,,0.00,,2013-08-12 02:08:00,
2013-08-11 22:16:00,65.0,56.0,30.06,SE,135,0.0,0.0,72,0.00,,,0.00,,2013-08-12 02:16:00,
2013-08-11 22:25:00,64.0,55.0,30.05,SE,135,0.0,0.0,73,0.00,,,0.00,,2013-08-12 02:25:00,
2013-08-11 22:37:00,64.0,56.0,30.05,SE,135,0.0,0.0,74,0.00,,,0.00,,2013-08-12 02:37:00,
2013-08-11 23:25:00,65.0,58.0,30.05,SE,135,0.0,0.0,79,0.00,,,0.00,,2013-08-12 03:25:00,
2013-08-11 23:39:00,65.0,58.0,30.04,SE,135,0.0,0.0,79,0.00,,,0.00,,2013-08-12 03:39:00,
2013-08-11 23:47:00,65.0,58.0,30.04,SE,135,0.0,0.0,79,0.00,,,0.00,,2013-08-12 03:47:00,
2013-08-11 23:58:00,64.0,58.0,30.04,SE,135,0.0,0.0,80,0.00,,,0.00,,2013-08-12 03:58:00,